Time;durP1;ratioP1;P1;durP2;ratioP2;P2;SDS_P1;SDS_P2;PMS_P1;PMS_P2;Temp;Humidity;BMP_temperature;BMP_pressure;BME280_temperature;BME280_humidity;BME280_pressure;Samples;Min_cycle;Max_cycle;Signal;HPM_P1;HPM_P2
2023/06/01 00:00:55;;;;;;;4.63;2.22;;;;;;;20.85;39.27;100755.41;4111933;28;20050;-63
2023/06/01 00:02:58;;;;;;;5.55;2.40;;;;;;;20.85;39.15;100760.69;4112377;28;20404;-63
2023/06/01 00:05:01;;;;;;;7.07;2.53;;;;;;;20.79;39.28;100748.50;4109798;28;20527;-63
2023/06/01 00:07:06;;;;;;;6.00;2.22;;;;;;;20.74;39.34;100750.41;4111576;28;20038;-63
2023/06/01 00:09:09;;;;;;;8.88;2.53;;;;;;;20.71;39.03;100755.75;4112825;28;20075;-63
2023/06/01 00:11:12;;;;;;;3.67;2.22;;;;;;;20.66;39.25;100750.59;4113145;28;20056;-63
2023/06/01 00:13:16;;;;;;;4.40;2.30;;;;;;;20.69;39.27;100752.25;4112806;28;20039;-63
2023/06/01 00:15:19;;;;;;;8.60;1.95;;;;;;;20.64;39.11;100746.19;4079882;29;20130;-63
2023/06/01 00:17:23;;;;;;;6.32;2.75;;;;;;;20.59;39.75;100754.22;4095651;29;20046;-63
2023/06/01 00:19:26;;;;;;;6.20;2.42;;;;;;;20.52;39.37;100742.94;4113321;28;20126;-63
2023/06/01 00:21:32;;;;;;;5.82;2.70;;;;;;;20.50;39.93;100750.03;4118689;28;20041;-63
2023/06/01 00:23:36;;;;;;;8.48;2.30;;;;;;;20.49;39.96;100748.28;4111685;28;20129;-63
2023/06/01 00:25:39;;;;;;;7.03;2.33;;;;;;;20.45;40.80;100746.59;4112747;28;20066;-63
2023/06/01 00:27:41;;;;;;;10.18;2.63;;;;;;;20.48;40.55;100748.31;4118113;28;20034;-64
2023/06/01 00:29:46;;;;;;;5.97;2.92;;;;;;;20.43;40.73;100748.41;4092179;29;20047;-64
2023/06/01 00:31:49;;;;;;;11.20;2.80;;;;;;;20.43;41.05;100744.88;4113029;28;20117;-64
2023/06/01 00:33:52;;;;;;;6.30;2.50;;;;;;;20.40;40.96;100751.13;4109614;28;20046;-63
2023/06/01 00:35:55;;;;;;;6.75;2.78;;;;;;;20.42;40.83;100741.41;4113016;28;20066;-64
2023/06/01 00:37:58;;;;;;;5.63;2.40;;;;;;;20.41;40.92;100744.94;4113086;28;20157;-64
2023/06/01 00:40:00;;;;;;;8.40;3.00;;;;;;;20.36;40.94;100746.81;4108216;28;20049;-64
2023/06/01 00:42:05;;;;;;;6.00;2.40;;;;;;;20.31;41.34;100746.91;4112875;28;20581;-64
2023/06/01 00:44:08;;;;;;;8.30;2.85;;;;;;;20.28;41.41;100747.00;4098850;28;20066;-64
2023/06/01 00:46:14;;;;;;;4.70;3.03;;;;;;;20.26;41.26;100740.00;4098462;28;21369;-64
2023/06/01 00:48:19;;;;;;;10.30;2.45;;;;;;;20.26;41.30;100742.63;4114706;28;20090;-64
2023/06/01 00:50:22;;;;;;;8.68;2.63;;;;;;;20.21;41.51;100746.25;4114613;28;20134;-64
2023/06/01 00:52:25;;;;;;;8.10;3.22;;;;;;;20.25;41.38;100752.31;4114377;28;20047;-64
2023/06/01 00:54:29;;;;;;;6.45;2.65;;;;;;;20.23;41.30;100746.22;4116482;28;20086;-64
2023/06/01 00:56:33;;;;;;;7.82;3.00;;;;;;;20.22;41.39;100742.72;4098106;28;20046;-64
2023/06/01 00:58:36;;;;;;;9.85;4.05;;;;;;;20.19;41.72;100750.69;4098130;28;20043;-64
2023/06/01 01:00:39;;;;;;;8.50;3.60;;;;;;;20.14;41.52;100744.63;4112766;28;20526;-64
2023/06/01 01:02:44;;;;;;;7.07;2.35;;;;;;;20.09;42.33;100746.47;4079247;29;20036;-64
2023/06/01 01:04:52;;;;;;;9.75;3.53;;;;;;;20.00;42.65;100744.91;4095087;29;20050;-64
2023/06/01 01:07:09;;;;;;;4.88;2.55;;;;;;;19.91;42.79;100737.19;4124190;28;20121;-63
2023/06/01 01:09:23;;;;;;;6.40;3.22;;;;;;;19.85;42.59;100745.22;4095788;29;20051;-63
2023/06/01 01:11:32;;;;;;;6.90;2.87;;;;;;;19.82;42.77;100740.88;4114570;28;20544;-63
2023/06/01 01:13:41;;;;;;;6.43;2.80;;;;;;;19.80;43.04;100750.59;4113343;28;20282;-63
2023/06/01 01:15:51;;;;;;;4.38;2.33;;;;;;;19.78;43.01;100748.84;4114912;28;20042;-63
2023/06/01 01:18:04;;;;;;;5.57;2.78;;;;;;;19.76;43.23;100742.75;4095751;29;20557;-64
2023/06/01 01:20:12;;;;;;;6.47;2.50;;;;;;;19.70;43.44;100741.94;4111217;28;20064;-63
2023/06/01 01:22:26;;;;;;;4.43;2.50;;;;;;;19.60;43.65;100745.66;4113385;28;20095;-63
2023/06/01 01:24:45;;;;;;;5.38;2.63;;;;;;;19.64;43.75;100741.19;4112596;28;20031;-63
2023/06/01 01:26:57;;;;;;;5.85;2.67;;;;;;;19.60;44.09;100744.78;4113923;28;20038;-63
2023/06/01 01:29:06;;;;;;;6.47;2.88;;;;;;;19.53;43.92;100744.88;4115225;28;20544;-63
2023/06/01 01:31:13;;;;;;;5.63;2.55;;;;;;;19.50;44.25;100744.09;4098200;29;20045;-63
2023/06/01 01:33:16;;;;;;;6.55;2.80;;;;;;;19.43;43.86;100745.94;4097182;29;20295;-63
2023/06/01 01:35:21;;;;;;;9.05;3.45;;;;;;;19.36;44.46;100739.94;4096597;28;20043;-63
2023/06/01 01:37:24;;;;;;;6.15;2.65;;;;;;;19.33;44.36;100749.66;4101011;28;20050;-64
2023/06/01 01:39:27;;;;;;;8.13;2.90;;;;;;;19.28;44.37;100747.09;4104930;28;20042;-63
2023/06/01 01:41:30;;;;;;;6.03;2.63;;;;;;;19.23;44.46;100741.06;4125378;28;20100;-63
2023/06/01 01:43:33;;;;;;;9.50;2.65;;;;;;;19.16;44.71;100745.53;4097156;29;20130;-63
2023/06/01 01:45:38;;;;;;;9.73;2.58;;;;;;;19.11;44.86;100752.66;4097620;28;20070;-63
2023/06/01 01:47:49;;;;;;;9.30;2.67;;;;;;;19.08;45.10;100744.78;4114283;28;20026;-63
2023/06/01 01:49:59;;;;;;;6.60;2.80;;;;;;;19.09;44.89;100748.31;4111377;28;20121;-64
2023/06/01 01:52:08;;;;;;;10.18;2.70;;;;;;;19.09;44.93;100741.28;4111324;28;20165;-63
2023/06/01 01:54:13;;;;;;;6.18;2.50;;;;;;;19.01;45.08;100751.94;4112658;28;20047;-63
2023/06/01 01:56:17;;;;;;;7.82;2.97;;;;;;;19.05;45.11;100744.84;4135718;23;20447;-71
2023/06/01 01:58:21;;;;;;;7.63;2.80;;;;;;;19.05;45.07;100747.47;4133841;28;20539;-70
2023/06/01 02:00:24;;;;;;;8.18;2.72;;;;;;;19.01;45.07;100751.94;4120313;28;20069;-70
2023/06/01 02:02:28;;;;;;;6.75;2.80;;;;;;;18.92;45.69;100751.22;4113943;28;20038;-70
2023/06/01 02:04:39;;;;;;;7.38;2.70;;;;;;;18.86;45.23;100740.75;4117098;28;20126;-70
2023/06/01 02:06:43;;;;;;;8.38;2.50;;;;;;;18.81;45.46;100749.59;4116275;28;20058;-70
2023/06/01 02:08:46;;;;;;;11.02;3.20;;;;;;;18.72;45.86;100747.09;4134315;28;20038;-69
2023/06/01 02:10:49;;;;;;;5.60;2.90;;;;;;;18.76;45.72;100748.78;4132264;28;20049;-70
2023/06/01 02:12:52;;;;;;;5.97;2.90;;;;;;;18.77;45.69;100747.03;4119254;28;20121;-70
2023/06/01 02:14:55;;;;;;;10.85;3.08;;;;;;;18.72;45.91;100744.47;4132205;28;20137;-70
2023/06/01 02:17:00;;;;;;;6.70;3.03;;;;;;;18.78;45.75;100741.72;4116453;28;20065;-69
2023/06/01 02:19:04;;;;;;;8.82;3.20;;;;;;;18.73;46.08;100745.31;4118091;28;20062;-69
2023/06/01 02:21:08;;;;;;;10.00;3.15;;;;;;;18.67;45.90;100735.75;4133783;28;21432;-71
2023/06/01 02:23:11;;;;;;;8.67;3.03;;;;;;;18.64;45.97;100730.53;4111522;28;20082;-70
2023/06/01 02:25:14;;;;;;;6.15;3.05;;;;;;;18.60;45.92;100734.97;4117915;28;20039;-70
2023/06/01 02:27:17;;;;;;;8.30;2.88;;;;;;;18.62;46.09;100732.31;4116593;28;20062;-69
2023/06/01 02:29:21;;;;;;;5.43;2.85;;;;;;;18.62;46.27;100742.88;4115499;28;20109;-69
2023/06/01 02:31:24;;;;;;;9.10;2.80;;;;;;;18.65;45.77;100729.66;4118102;28;20472;-70
2023/06/01 02:33:28;;;;;;;8.57;2.78;;;;;;;18.57;46.39;100735.00;4119453;28;20524;-70
2023/06/01 02:35:32;;;;;;;8.20;3.53;;;;;;;18.57;46.16;100732.38;4115446;28;20539;-70
2023/06/01 02:37:35;;;;;;;7.28;2.20;;;;;;;18.52;46.34;100725.47;4116619;28;20051;-70
2023/06/01 02:39:38;;;;;;;8.20;3.15;;;;;;;18.53;46.23;100733.34;4121023;28;20089;-70
2023/06/01 02:41:41;;;;;;;7.13;2.90;;;;;;;18.48;46.18;100735.16;4129897;28;20512;-70
2023/06/01 02:43:44;;;;;;;7.68;2.80;;;;;;;18.46;46.42;100727.28;4114485;28;20517;-70
2023/06/01 02:45:47;;;;;;;4.95;2.10;;;;;;;18.51;46.36;100732.47;4118016;28;20042;-70
2023/06/01 02:47:50;;;;;;;7.80;2.72;;;;;;;18.51;46.50;100727.19;4132292;28;20089;-70
2023/06/01 02:49:53;;;;;;;7.65;3.20;;;;;;;18.57;46.46;100734.16;4128513;28;20092;-70
2023/06/01 02:51:57;;;;;;;4.80;2.70;;;;;;;18.56;46.29;100730.66;4117285;28;20046;-70
2023/06/01 02:54:01;;;;;;;11.50;2.88;;;;;;;18.55;46.20;100735.94;4112846;28;20045;-70
2023/06/01 02:56:04;;;;;;;6.32;2.80;;;;;;;18.48;46.51;100730.75;4099263;28;20046;-70
2023/06/01 02:58:36;;;;;;;7.47;3.00;;;;;;;18.53;46.53;100732.44;4101334;28;20074;-70
2023/06/01 03:00:46;;;;;;;6.18;2.63;;;;;;;18.40;46.64;100727.38;4112966;28;20108;-69
2023/06/01 03:02:50;;;;;;;7.10;3.00;;;;;;;18.44;46.54;100734.34;4098748;28;20516;-69
2023/06/01 03:04:53;;;;;;;7.97;2.88;;;;;;;18.51;46.58;100734.25;4118317;28;20035;-69
2023/06/01 03:06:58;;;;;;;8.35;2.85;;;;;;;18.43;46.74;100732.59;4130506;28;20065;-69
2023/06/01 03:09:12;;;;;;;5.57;2.40;;;;;;;18.41;46.67;100736.13;4115586;28;20072;-70
2023/06/01 03:11:25;;;;;;;4.28;2.55;;;;;;;18.33;46.76;100730.97;4118199;28;20038;-69
2023/06/01 03:13:28;;;;;;;5.35;2.95;;;;;;;18.36;46.56;100735.31;4112759;28;20125;-69
2023/06/01 03:15:31;;;;;;;6.35;2.92;;;;;;;18.33;46.89;100736.22;4115566;28;20512;-70
2023/06/01 03:17:35;;;;;;;4.90;2.65;;;;;;;18.29;46.84;100731.91;4119162;28;20062;-69
2023/06/01 03:19:38;;;;;;;11.02;3.17;;;;;;;18.30;46.84;100731.88;4113059;28;20043;-69
2023/06/01 03:21:50;;;;;;;8.40;2.85;;;;;;;18.31;46.61;100735.38;4115450;28;20505;-69
2023/06/01 03:24:01;;;;;;;8.23;3.08;;;;;;;18.32;46.86;100739.75;4131578;28;20491;-69
2023/06/01 03:26:04;;;;;;;7.50;2.60;;;;;;;18.22;47.07;100730.22;4115012;28;20117;-69
2023/06/01 03:28:07;;;;;;;6.45;3.00;;;;;;;18.17;47.05;100734.69;4116183;28;20042;-69
2023/06/01 03:30:11;;;;;;;7.17;3.50;;;;;;;18.16;47.38;100735.59;4093844;28;20057;-69
2023/06/01 03:32:17;;;;;;;7.07;3.13;;;;;;;18.12;47.46;100730.38;4114756;28;20283;-69
2023/06/01 03:34:21;;;;;;;7.40;2.75;;;;;;;18.03;47.66;100735.72;4101095;28;20065;-69
2023/06/01 03:36:25;;;;;;;7.07;3.03;;;;;;;18.04;47.47;100733.97;4113254;28;20042;-69
2023/06/01 03:38:28;;;;;;;6.95;3.05;;;;;;;18.03;47.56;100738.34;4129626;28;20045;-69
2023/06/01 03:40:32;;;;;;;6.60;3.63;;;;;;;18.00;47.73;100743.66;4115483;28;20043;-69
2023/06/01 03:42:35;;;;;;;8.13;3.10;;;;;;;18.04;48.04;100741.88;4116000;28;20035;-69
2023/06/01 03:44:37;;;;;;;5.82;2.90;;;;;;;18.01;47.99;100742.78;4117895;28;20464;-69
2023/06/01 03:46:42;;;;;;;6.45;3.05;;;;;;;18.05;47.83;100739.22;4115461;28;20620;-70
2023/06/01 03:48:45;;;;;;;4.10;2.33;;;;;;;17.99;47.90;100749.81;4114159;28;20035;-69
2023/06/01 03:50:48;;;;;;;8.43;2.80;;;;;;;17.94;48.07;100746.38;4113377;28;20109;-69
2023/06/01 03:52:51;;;;;;;8.85;3.38;;;;;;;17.96;47.96;100742.84;4111308;28;20031;-68
2023/06/01 03:54:55;;;;;;;13.48;3.05;;;;;;;17.96;48.04;100748.09;4131656;28;20549;-69
2023/06/01 03:57:22;;;;;;;5.45;2.78;;;;;;;18.12;48.09;100743.53;4116870;28;20039;-59
2023/06/01 03:59:25;;;;;;;7.28;3.10;;;;;;;18.03;48.17;100748.00;4097031;28;20039;-59
2023/06/01 04:01:29;;;;;;;5.35;3.03;;;;;;;18.07;47.96;100750.59;4116972;28;20035;-59
2023/06/01 04:03:32;;;;;;;5.65;2.63;;;;;;;18.10;47.91;100745.28;4114736;28;20129;-59
2023/06/01 04:05:36;;;;;;;10.13;3.28;;;;;;;18.09;47.86;100746.19;4113143;28;20185;-58
2023/06/01 04:07:40;;;;;;;8.25;3.10;;;;;;;18.05;48.01;100749.75;4097963;28;20090;-59
2023/06/01 04:09:42;;;;;;;12.30;3.05;;;;;;;18.08;47.82;100746.22;4110896;28;20042;-58
2023/06/01 04:11:46;;;;;;;8.80;3.03;;;;;;;18.00;48.25;100748.91;4129855;28;20140;-58
2023/06/01 04:13:51;;;;;;;7.07;3.05;;;;;;;17.96;48.60;100750.72;4130258;28;20116;-59
2023/06/01 04:15:55;;;;;;;6.25;3.33;;;;;;;18.06;48.20;100754.13;4131118;28;20077;-59
2023/06/01 04:17:58;;;;;;;7.20;3.28;;;;;;;17.94;48.37;100747.22;4115700;28;20095;-58
2023/06/01 04:20:01;;;;;;;8.27;3.35;;;;;;;17.94;48.59;100749.00;4095685;28;20066;-64
2023/06/01 04:22:04;;;;;;;9.88;3.13;;;;;;;17.94;48.57;100749.00;4112747;28;20038;-65
2023/06/01 04:24:33;;;;;;;5.57;2.90;;;;;;;17.91;48.77;100751.66;4125351;28;20047;-65
2023/06/01 04:26:36;;;;;;;7.72;3.60;;;;;;;17.85;48.61;100754.34;4125979;28;20873;-65
2023/06/01 04:28:43;;;;;;;7.10;3.83;;;;;;;17.88;48.91;100764.81;4112405;28;20463;-65
2023/06/01 04:30:51;;;;;;;8.23;2.80;;;;;;;17.83;49.09;100766.63;4128878;28;20042;-65
2023/06/01 04:32:54;;;;;;;7.03;3.50;;;;;;;17.89;49.13;100771.81;4112606;28;20521;-65
2023/06/01 04:34:59;;;;;;;6.37;2.80;;;;;;;17.95;49.15;100764.75;4115450;28;20053;-65
2023/06/01 04:37:04;;;;;;;11.65;4.10;;;;;;;17.98;48.91;100766.50;4118429;28;20046;-65
2023/06/01 04:39:08;;;;;;;6.43;3.33;;;;;;;17.98;49.11;100768.25;4130911;28;20034;-65
2023/06/01 04:41:11;;;;;;;10.48;3.45;;;;;;;17.94;49.19;100765.63;4133267;28;20034;-65
2023/06/01 04:43:18;;;;;;;12.15;3.30;;;;;;;17.95;49.36;100766.53;4127711;28;20432;-66
2023/06/01 04:45:23;;;;;;;8.48;3.70;;;;;;;17.96;49.56;100765.66;4129639;28;20473;-66
2023/06/01 04:47:28;;;;;;;7.53;3.67;;;;;;;17.96;49.51;100768.28;4117528;28;20044;-66
2023/06/01 04:49:34;;;;;;;9.93;3.65;;;;;;;18.00;49.42;100766.47;4095869;28;20035;-65
2023/06/01 04:51:37;;;;;;;;;;;;;;;17.99;49.48;100767.34;4115058;28;20058;-65
2023/06/01 04:53:40;;;;;;;7.95;3.17;;;;;;;18.00;49.39;100769.09;4115825;28;19961;-66
2023/06/01 04:55:44;;;;;;;12.93;3.20;;;;;;;18.04;49.55;100765.53;4112697;28;20047;-66
2023/06/01 04:57:46;;;;;;;8.13;3.35;;;;;;;18.09;49.34;100768.97;4117401;28;20412;-65
2023/06/01 04:59:50;;;;;;;10.07;3.20;;;;;;;18.12;49.25;100771.56;4130886;28;20031;-65
2023/06/01 05:01:53;;;;;;;6.95;3.00;;;;;;;18.17;49.43;100771.53;4112574;28;20039;-65
2023/06/01 05:03:57;;;;;;;8.73;3.28;;;;;;;18.23;49.43;100766.19;4111286;28;20145;-65
2023/06/01 05:06:01;;;;;;;8.10;3.10;;;;;;;18.29;49.28;100777.50;4113464;28;20041;-65
2023/06/01 05:08:05;;;;;;;10.20;3.72;;;;;;;18.37;49.22;100774.78;4115772;28;20389;-66
2023/06/01 05:10:10;;;;;;;8.85;3.92;;;;;;;18.44;49.04;100775.56;4115294;28;20035;-65
2023/06/01 05:12:20;;;;;;;11.65;3.45;;;;;;;18.46;49.11;100766.75;4095532;28;20055;-65
2023/06/01 05:14:23;;;;;;;10.73;3.22;;;;;;;18.53;49.24;100769.31;4116549;28;20101;-66
2023/06/01 05:16:27;;;;;;;6.55;2.85;;;;;;;18.50;48.92;100775.50;4115152;28;20055;-65
2023/06/01 05:18:32;;;;;;;10.30;4.10;;;;;;;18.57;49.25;100777.13;4114002;28;20034;-65
2023/06/01 05:20:37;;;;;;;7.93;3.50;;;;;;;18.66;48.67;100776.13;4133536;28;20035;-66
2023/06/01 05:22:40;;;;;;;9.68;3.42;;;;;;;18.68;48.83;100777.00;4111421;28;20035;-65
2023/06/01 05:24:43;;;;;;;10.07;3.40;;;;;;;18.78;48.32;100775.13;4127987;28;20042;-65
2023/06/01 05:26:46;;;;;;;6.15;2.70;;;;;;;18.74;49.10;100774.28;4116289;28;20039;-66
2023/06/01 05:28:49;;;;;;;9.80;3.75;;;;;;;18.83;48.47;100784.66;4098620;28;20043;-65
2023/06/01 05:30:52;;;;;;;13.90;4.20;;;;;;;19.00;48.11;100780.97;4118036;28;20517;-66
2023/06/01 05:32:55;;;;;;;12.70;3.92;;;;;;;19.03;48.14;100780.91;4132272;28;20034;-66
2023/06/01 05:34:58;;;;;;;21.27;3.80;;;;;;;18.99;48.36;100785.34;4096617;28;20039;-65
2023/06/01 05:37:03;;;;;;;10.48;3.90;;;;;;;19.02;48.53;100779.16;4101053;28;20075;-66
2023/06/01 05:39:06;;;;;;;35.53;5.10;;;;;;;19.16;47.93;100785.09;4134270;28;20092;-65
2023/06/01 05:41:10;;;;;;;13.63;4.30;;;;;;;19.18;47.60;100780.63;4115047;28;20070;-66
2023/06/01 05:43:15;;;;;;;18.17;4.05;;;;;;;19.22;47.57;100775.34;4099375;28;22354;-65
2023/06/01 05:45:18;;;;;;;10.85;3.88;;;;;;;19.28;47.64;100785.78;4133737;28;20512;-66
2023/06/01 05:47:21;;;;;;;10.48;3.60;;;;;;;19.27;47.95;100784.03;4132700;28;20105;-66
2023/06/01 05:49:24;;;;;;;17.92;3.75;;;;;;;19.31;47.47;100781.31;4118661;28;20584;-66
2023/06/01 05:51:27;;;;;;;14.93;4.05;;;;;;;19.46;47.34;100780.16;4116935;28;20572;-66
2023/06/01 05:53:32;;;;;;;16.73;3.95;;;;;;;19.54;47.42;100775.66;4110078;28;20043;-66
2023/06/01 05:55:35;;;;;;;;;;;;;;;19.45;47.60;100774.94;4112089;28;20041;-66
2023/06/01 05:57:38;;;;;;;16.15;3.53;;;;;;;19.55;47.23;100776.50;4094043;28;19930;-65
2023/06/01 05:59:42;;;;;;;14.60;4.57;;;;;;;19.58;47.35;100775.59;4106827;28;20050;-65
2023/06/01 06:01:45;;;;;;;18.85;4.47;;;;;;;19.84;46.58;100778.66;4095459;28;20067;-66
2023/06/01 06:03:48;;;;;;;15.95;4.05;;;;;;;19.79;46.31;100782.28;4117280;28;20520;-65
2023/06/01 06:05:51;;;;;;;14.40;3.90;;;;;;;19.82;47.06;100785.72;4117918;28;20429;-65
2023/06/01 06:07:54;;;;;;;9.80;4.25;;;;;;;19.93;46.91;100779.38;4114455;28;20042;-65
2023/06/01 06:09:58;;;;;;;15.68;3.92;;;;;;;20.00;46.59;100775.72;4117593;28;20034;-66
2023/06/01 06:12:02;;;;;;;11.52;4.03;;;;;;;20.10;46.49;100774.63;4117244;28;20085;-65
2023/06/01 06:14:05;;;;;;;14.15;4.70;;;;;;;20.23;46.37;100778.75;4115239;28;21700;-65
2023/06/01 06:16:08;;;;;;;11.75;4.82;;;;;;;20.39;45.20;100773.16;4116286;28;20061;-65
2023/06/01 06:18:11;;;;;;;10.25;4.85;;;;;;;20.33;45.49;100779.44;4120303;28;20046;-65
2023/06/01 06:20:15;;;;;;;21.92;4.60;;;;;;;20.36;45.50;100770.59;4117850;28;20106;-65
2023/06/01 06:22:19;;;;;;;14.73;4.23;;;;;;;20.33;45.60;100774.16;4096638;28;20050;-65
2023/06/01 06:24:22;;;;;;;17.95;5.57;;;;;;;20.44;45.87;100768.63;4115758;28;20034;-65
2023/06/01 06:26:27;;;;;;;13.30;4.30;;;;;;;20.54;45.12;100772.81;4136290;28;20037;-65
2023/06/01 06:28:30;;;;;;;15.60;4.57;;;;;;;20.61;45.36;100773.53;4114869;28;20035;-66
2023/06/01 06:30:33;;;;;;;16.85;4.63;;;;;;;20.63;45.42;100781.44;4114698;28;20089;-65
2023/06/01 06:32:36;;;;;;;14.75;4.25;;;;;;;20.61;45.29;100773.53;4116487;28;20046;-65
2023/06/01 06:34:39;;;;;;;10.15;3.90;;;;;;;20.68;45.79;100776.97;4118182;28;20401;-66
2023/06/01 06:36:42;;;;;;;20.55;4.40;;;;;;;20.83;45.65;100776.59;4114485;28;20066;-66
2023/06/01 06:38:45;;;;;;;10.10;3.58;;;;;;;20.91;45.15;100774.66;4116246;28;20039;-66
2023/06/01 06:40:48;;;;;;;17.65;4.45;;;;;;;21.03;44.84;100780.56;4118377;28;20049;-66
2023/06/01 06:42:52;;;;;;;16.50;4.72;;;;;;;21.20;45.10;100769.53;4116504;28;20146;-65
2023/06/01 06:44:57;;;;;;;19.83;4.90;;;;;;;21.30;43.61;100772.84;4118692;28;20137;-66
2023/06/01 06:47:00;;;;;;;;;;;;;;;21.37;42.73;100779.72;4115458;28;20054;-65
2023/06/01 06:49:05;;;;;;;19.70;5.50;;;;;;;21.37;42.45;100782.34;4115737;28;19961;-66
2023/06/01 06:51:08;;;;;;;15.27;6.17;;;;;;;21.41;42.30;100784.03;4116898;28;20035;-66
2023/06/01 06:53:11;;;;;;;15.27;5.70;;;;;;;21.38;42.02;100782.31;4119355;28;20411;-66
2023/06/01 06:55:14;;;;;;;12.25;5.07;;;;;;;21.28;42.61;100776.38;4111747;28;20121;-65
2023/06/01 06:57:17;;;;;;;19.13;6.07;;;;;;;21.32;42.80;100778.94;4117057;28;20055;-66
2023/06/01 06:59:21;;;;;;;21.55;6.75;;;;;;;21.46;42.08;100782.09;4120296;28;20042;-66
2023/06/01 07:01:24;;;;;;;13.95;5.80;;;;;;;21.41;42.88;100776.94;4117459;28;20126;-66
2023/06/01 07:03:27;;;;;;;11.60;4.47;;;;;;;21.57;42.79;100772.16;4114931;28;20476;-65
2023/06/01 07:05:30;;;;;;;17.10;5.75;;;;;;;21.69;42.41;100778.03;4117444;28;20086;-66
2023/06/01 07:07:33;;;;;;;13.15;4.53;;;;;;;21.82;41.82;100778.59;4116546;28;20141;-66
2023/06/01 07:09:36;;;;;;;13.10;3.70;;;;;;;21.80;41.98;100773.31;4116296;28;20043;-66
2023/06/01 07:11:42;;;;;;;10.73;4.32;;;;;;;22.05;41.58;100777.91;4117421;28;20038;-66
2023/06/01 07:13:45;;;;;;;9.98;4.50;;;;;;;22.02;41.07;100778.88;4117702;28;20125;-65
2023/06/01 07:15:54;;;;;;;11.30;4.50;;;;;;;22.17;41.16;100780.22;4127693;28;20089;-66
2023/06/01 07:17:57;;;;;;;13.77;4.45;;;;;;;22.17;40.77;100776.72;4129875;28;20031;-66
2023/06/01 07:20:06;;;;;;;22.80;5.53;;;;;;;22.21;40.48;100776.56;4118063;28;20098;-66
2023/06/01 07:22:09;;;;;;;16.50;4.70;;;;;;;22.23;40.34;100782.69;4114261;28;20484;-66
2023/06/01 07:24:11;;;;;;;12.15;5.55;;;;;;;22.29;41.17;100781.66;4118747;28;20412;-66
2023/06/01 07:26:14;;;;;;;9.07;3.38;;;;;;;22.38;40.07;100778.75;4121017;28;20150;-66
2023/06/01 07:28:18;;;;;;;11.45;4.47;;;;;;;22.48;39.79;100782.00;4114413;28;20061;-66
2023/06/01 07:30:21;;;;;;;11.65;3.80;;;;;;;22.57;40.00;100773.75;4117185;28;20491;-65
2023/06/01 07:32:27;;;;;;;16.02;5.13;;;;;;;22.69;39.76;100779.59;4116344;28;20042;-66
2023/06/01 07:34:30;;;;;;;12.75;4.18;;;;;;;22.63;40.17;100776.25;4115241;28;20043;-66
2023/06/01 07:36:36;;;;;;;11.35;3.80;;;;;;;22.71;40.05;100768.03;4118962;28;20050;-65
2023/06/01 07:38:40;;;;;;;15.45;4.43;;;;;;;22.85;39.78;100778.19;4132534;28;20042;-66
2023/06/01 07:40:44;;;;;;;13.40;3.80;;;;;;;22.86;40.31;100771.97;4115193;28;20082;-66
2023/06/01 07:42:46;;;;;;;10.63;3.78;;;;;;;22.98;39.41;100774.25;4118474;28;20043;-66
2023/06/01 07:44:50;;;;;;;13.88;4.20;;;;;;;23.02;39.84;100772.34;4133407;28;20038;-66
2023/06/01 07:46:53;;;;;;;11.25;4.35;;;;;;;23.07;39.12;100769.53;4128354;28;20070;-66
2023/06/01 07:48:58;;;;;;;11.90;3.92;;;;;;;23.07;40.00;100774.84;4117999;28;20090;-66
2023/06/01 07:51:01;;;;;;;12.50;4.30;;;;;;;23.24;38.26;100769.88;4114615;28;20038;-66
2023/06/01 07:53:04;;;;;;;13.65;4.65;;;;;;;23.20;38.61;100780.66;4118922;28;20121;-66
2023/06/01 07:55:09;;;;;;;9.30;3.80;;;;;;;23.17;38.37;100781.63;4117224;28;20078;-66
2023/06/01 07:57:12;;;;;;;12.82;3.67;;;;;;;23.34;38.16;100763.34;4132232;23;20050;-68
2023/06/01 07:59:15;;;;;;;11.20;4.28;;;;;;;23.32;37.65;100765.19;4124506;28;20132;-68
2023/06/01 08:01:18;;;;;;;10.73;4.45;;;;;;;23.27;38.41;100761.81;4126979;28;20042;-68
2023/06/01 08:03:25;;;;;;;8.15;3.42;;;;;;;23.33;38.40;100756.34;4126916;28;20129;-68
2023/06/01 08:05:30;;;;;;;12.70;3.42;;;;;;;23.21;39.00;100764.69;4125892;28;20049;-68
2023/06/01 08:07:33;;;;;;;8.00;3.42;;;;;;;23.25;39.00;100763.69;4116770;28;20081;-68
2023/06/01 08:09:38;;;;;;;13.70;4.93;;;;;;;23.46;38.20;100755.91;4111700;28;20042;-68
2023/06/01 08:11:41;;;;;;;8.35;3.53;;;;;;;23.50;38.69;100758.38;4112813;28;20070;-68
2023/06/01 08:13:45;;;;;;;10.73;4.80;;;;;;;23.72;38.40;100757.63;4112790;28;20405;-68
2023/06/01 08:15:48;;;;;;;;;;;;;;;23.72;38.28;100751.47;4091019;29;20035;-68
2023/06/01 08:17:51;;;;;;;16.20;4.63;;;;;;;23.80;37.76;100754.69;4111540;28;19930;-68
2023/06/01 08:19:56;;;;;;;9.35;3.17;;;;;;;23.68;38.33;100756.88;4127455;28;20061;-68
2023/06/01 08:22:04;;;;;;;10.85;3.60;;;;;;;23.78;38.50;100753.91;4111284;28;20449;-68
2023/06/01 08:24:08;;;;;;;10.48;4.15;;;;;;;23.88;39.02;100752.66;4111008;28;20042;-68
2023/06/01 08:26:11;;;;;;;9.88;3.72;;;;;;;23.96;38.22;100752.38;4113131;28;20476;-68
2023/06/01 08:28:14;;;;;;;14.95;4.00;;;;;;;23.99;37.75;100761.13;4112901;28;20090;-68
2023/06/01 08:30:17;;;;;;;9.85;3.88;;;;;;;24.04;38.08;100750.31;4113035;28;20074;-68
2023/06/01 08:32:20;;;;;;;8.93;3.97;;;;;;;24.05;38.33;100744.09;4111587;28;20041;-68
2023/06/01 08:34:23;;;;;;;11.48;3.90;;;;;;;24.07;38.19;100746.69;4112499;28;20034;-68
2023/06/01 08:36:25;;;;;;;10.60;4.32;;;;;;;24.08;38.27;100740.44;4111017;28;20067;-68
2023/06/01 08:38:32;;;;;;;13.43;4.35;;;;;;;24.15;38.54;100748.13;4112483;28;20432;-68
2023/06/01 08:40:35;;;;;;;13.35;4.25;;;;;;;24.24;39.19;100738.94;4111641;28;20448;-68
2023/06/01 08:42:44;;;;;;;10.15;3.90;;;;;;;24.25;39.06;100745.97;4110854;28;20035;-68
2023/06/01 08:44:47;;;;;;;9.23;4.10;;;;;;;24.34;38.56;100745.63;4110131;28;20089;-68
2023/06/01 08:46:51;;;;;;;11.68;3.42;;;;;;;24.36;38.57;100743.75;4109062;28;20047;-68
2023/06/01 08:48:55;;;;;;;8.55;3.33;;;;;;;24.45;39.17;100741.69;4111217;28;20074;-68
2023/06/01 08:50:59;;;;;;;;;;;;;;;24.64;38.35;100739.19;4111558;28;20044;-68
2023/06/01 08:53:04;;;;;;;7.47;3.90;;;;;;;24.60;37.49;100740.25;4111872;28;19985;-68
2023/06/01 08:55:09;;;;;;;10.00;3.67;;;;;;;24.54;38.15;100738.66;4111827;28;20034;-68
2023/06/01 08:57:12;;;;;;;13.82;3.70;;;;;;;24.64;38.33;100729.41;4111225;28;20043;-68
2023/06/01 08:59:15;;;;;;;11.60;3.65;;;;;;;24.67;38.38;100728.44;4109182;28;20101;-68
2023/06/01 09:01:21;;;;;;;20.25;3.83;;;;;;;24.69;38.36;100735.44;4110807;28;20047;-68
2023/06/01 09:03:24;;;;;;;12.50;4.10;;;;;;;24.82;37.34;100727.78;4112303;28;20537;-68
2023/06/01 09:05:27;;;;;;;12.07;3.83;;;;;;;24.93;36.96;100735.34;4114434;28;20046;-68
2023/06/01 09:07:31;;;;;;;10.70;3.83;;;;;;;25.17;35.45;100729.94;4114181;28;20101;-68
2023/06/01 09:09:36;;;;;;;10.45;3.83;;;;;;;25.15;35.77;100726.47;4114439;28;20114;-68
2023/06/01 09:11:41;;;;;;;11.63;4.25;;;;;;;25.03;36.50;100726.06;4111988;28;20035;-68
2023/06/01 09:13:44;;;;;;;;;;;;;;;25.07;36.22;100727.66;4116160;28;20557;-68
2023/06/01 09:15:55;;;;;;;6.70;3.35;;;;;;;24.90;36.56;100727.50;4113169;28;20049;-68
2023/06/01 09:18:11;;;;;;;11.23;3.72;;;;;;;24.98;36.21;100722.72;4129902;28;20042;-68
2023/06/01 09:20:15;;;;;;;7.05;3.50;;;;;;;25.16;36.14;100717.53;4112437;28;20039;-68
2023/06/01 09:22:18;;;;;;;9.18;2.88;;;;;;;25.28;35.81;100719.69;4114710;28;20039;-68
2023/06/01 09:24:22;;;;;;;11.00;4.28;;;;;;;25.29;36.07;100712.56;4115468;28;20126;-68
2023/06/01 09:26:27;;;;;;;8.93;3.55;;;;;;;25.37;35.86;100721.13;4114493;28;20417;-68
2023/06/01 09:28:51;;;;;;;11.45;4.10;;;;;;;25.43;35.26;100718.19;4114001;28;20584;-68
2023/06/01 09:30:54;;;;;;;10.15;4.68;;;;;;;25.33;35.23;100714.19;4115059;28;20038;-68
2023/06/01 09:33:10;;;;;;;10.40;4.90;;;;;;;25.43;35.63;100711.06;4114239;28;20035;-68
2023/06/01 09:35:13;;;;;;;6.68;3.35;;;;;;;25.59;35.57;100707.72;4111273;28;20476;-68
2023/06/01 09:37:16;;;;;;;9.98;3.53;;;;;;;25.58;34.59;100709.53;4115488;28;20490;-68
2023/06/01 09:39:21;;;;;;;10.95;3.80;;;;;;;25.77;34.44;100709.56;4113999;28;20521;-68